Time;durP1;ratioP1;P1;durP2;ratioP2;P2;SDS_P1;SDS_P2;PMS_P1;PMS_P2;Temp;Humidity;BMP_temperature;BMP_pressure;BME280_temperature;BME280_humidity;BME280_pressure;Samples;Min_cycle;Max_cycle;Signal;HPM_P1;HPM_P2
2022/04/25 00:00:53;;;;;;;16.88;5.85;;;9.50;99.90;;;;;;5036128;28;20028;-63
2022/04/25 00:03:19;;;;;;;11.77;5.95;;;9.60;99.90;;;;;;5036192;28;20037;-67
2022/04/25 00:05:45;;;;;;;12.60;5.32;;;9.70;99.90;;;;;;5034574;28;20052;-64
2022/04/25 00:08:10;;;;;;;13.73;5.72;;;9.80;99.90;;;;;;5053242;28;20017;-63
2022/04/25 00:10:36;;;;;;;15.38;6.57;;;9.80;99.90;;;;;;5034399;28;20026;-63
2022/04/25 00:13:01;;;;;;;14.77;5.88;;;9.80;99.90;;;;;;5036711;28;20048;-67
2022/04/25 00:15:27;;;;;;;14.02;5.63;;;9.90;99.90;;;;;;5057078;28;20429;-66
2022/04/25 00:17:53;;;;;;;11.77;6.05;;;9.90;99.90;;;;;;5035955;28;20076;-64
2022/04/25 00:20:18;;;;;;;16.85;6.80;;;10.00;99.90;;;;;;5044925;28;20057;-66
2022/04/25 00:22:46;;;;;;;14.38;5.80;;;10.00;99.90;;;;;;5031796;28;20064;-66
2022/04/25 00:25:12;;;;;;;12.25;5.05;;;10.10;99.90;;;;;;5032930;28;20017;-66
2022/04/25 00:27:38;;;;;;;12.75;5.88;;;10.10;99.90;;;;;;5040764;28;20041;-66
2022/04/25 00:30:04;;;;;;;16.30;7.20;;;10.20;99.90;;;;;;5034154;28;20075;-65
2022/04/25 00:32:29;;;;;;;11.90;5.60;;;10.20;99.90;;;;;;5034181;28;20033;-66
2022/04/25 00:34:55;;;;;;;12.95;5.13;;;10.30;99.90;;;;;;5034940;28;20370;-64
2022/04/25 00:37:21;;;;;;;13.38;5.97;;;10.40;99.90;;;;;;5033108;28;20064;-63
2022/04/25 00:39:46;;;;;;;12.25;5.32;;;10.40;99.90;;;;;;5036792;28;20029;-63
2022/04/25 00:42:12;;;;;;;12.70;5.10;;;10.40;99.90;;;;;;5032547;28;20045;-65
2022/04/25 00:44:38;;;;;;;12.07;5.03;;;10.40;99.90;;;;;;5040608;28;20033;-64
2022/04/25 00:47:06;;;;;;;12.82;5.38;;;10.40;99.90;;;;;;5041428;28;20025;-64
2022/04/25 00:49:31;;;;;;;14.38;6.53;;;10.40;99.90;;;;;;5037912;28;20028;-64
2022/04/25 00:51:57;;;;;;;16.63;6.20;;;10.50;99.90;;;;;;5046033;28;20028;-66
2022/04/25 00:54:22;;;;;;;11.70;5.90;;;10.50;99.90;;;;;;5041829;28;20472;-62
2022/04/25 00:56:49;;;;;;;11.85;5.72;;;10.50;99.90;;;;;;5050192;28;20036;-65
2022/04/25 00:59:19;;;;;;;12.68;5.32;;;10.50;99.90;;;;;;5049928;28;20041;-66
2022/04/25 01:01:47;;;;;;;15.40;6.88;;;10.50;99.90;;;;;;5041044;28;20390;-63
2022/04/25 01:04:12;;;;;;;15.27;5.78;;;10.50;99.90;;;;;;5039326;28;20061;-65
2022/04/25 01:06:38;;;;;;;16.80;5.95;;;10.60;99.90;;;;;;5036285;28;20107;-65
2022/04/25 01:09:05;;;;;;;16.58;5.82;;;10.50;99.90;;;;;;5046285;28;20029;-66
2022/04/25 01:11:30;;;;;;;15.52;5.68;;;10.50;99.90;;;;;;5043727;28;20024;-67
2022/04/25 01:13:56;;;;;;;14.77;6.60;;;10.50;99.90;;;;;;5040135;28;20033;-67
2022/04/25 01:16:21;;;;;;;13.45;5.38;;;10.40;99.90;;;;;;5050186;28;20408;-66
2022/04/25 01:18:47;;;;;;;12.50;6.00;;;10.40;99.90;;;;;;5050205;28;20112;-64
2022/04/25 01:21:14;;;;;;;17.30;6.70;;;10.40;99.90;;;;;;5050618;28;20484;-67
2022/04/25 01:29:08;;;;;;;13.48;5.07;;;10.10;99.90;;;;;;5050661;28;20400;-66
2022/04/25 01:31:34;;;;;;;14.88;6.10;;;10.10;99.90;;;;;;5050314;28;20510;-65
2022/04/25 01:34:00;;;;;;;15.77;5.93;;;10.00;99.90;;;;;;5039826;28;20112;-65
2022/04/25 01:36:26;;;;;;;14.55;6.47;;;10.00;99.90;;;;;;5036295;28;20021;-66
2022/04/25 01:38:52;;;;;;;14.48;5.68;;;9.90;99.90;;;;;;5051997;28;20021;-64
2022/04/25 01:41:18;;;;;;;17.10;6.93;;;9.90;99.90;;;;;;5052742;28;20381;-65
2022/04/25 01:43:43;;;;;;;15.80;5.78;;;9.80;99.90;;;;;;5052794;28;20021;-68
2022/04/25 01:46:09;;;;;;;14.90;5.75;;;9.80;99.90;;;;;;5053235;28;20179;-67
2022/04/25 01:48:35;;;;;;;15.98;6.00;;;9.80;99.90;;;;;;5043551;28;20468;-62
2022/04/25 01:51:01;;;;;;;10.65;4.82;;;9.70;99.90;;;;;;5037757;28;20082;-62
2022/04/25 01:53:27;;;;;;;15.40;5.53;;;9.70;99.90;;;;;;5033177;28;20038;-63
2022/04/25 01:55:53;;;;;;;15.75;6.03;;;9.60;99.90;;;;;;5033246;28;20037;-64
2022/04/25 01:58:19;;;;;;;16.10;6.70;;;9.60;99.90;;;;;;5043653;28;20037;-63
2022/04/25 02:00:45;;;;;;;10.68;5.13;;;9.60;99.90;;;;;;5052830;28;20024;-65
2022/04/25 02:03:11;;;;;;;16.33;6.18;;;9.60;99.90;;;;;;5052847;28;20033;-65
2022/04/25 02:05:37;;;;;;;19.70;6.35;;;9.70;99.90;;;;;;5051346;28;20091;-64
2022/04/25 02:08:03;;;;;;;18.17;5.97;;;9.70;99.90;;;;;;5044132;28;20446;-62
2022/04/25 02:10:28;;;;;;;13.63;6.15;;;9.70;99.90;;;;;;5045904;28;20159;-63
2022/04/25 02:12:54;;;;;;;10.40;4.28;;;9.80;99.90;;;;;;5035147;28;20025;-62
2022/04/25 02:15:20;;;;;;;17.48;5.85;;;9.90;99.90;;;;;;5036553;28;20036;-62
2022/04/25 02:17:45;;;;;;;12.30;5.15;;;9.90;99.90;;;;;;5044417;28;20099;-63
2022/04/25 02:20:14;;;;;;;11.30;5.57;;;9.90;99.90;;;;;;5051343;28;20032;-62
2022/04/25 02:22:40;;;;;;;15.50;5.75;;;9.90;99.90;;;;;;5054867;28;20033;-63
2022/04/25 02:25:07;;;;;;;9.63;4.90;;;9.90;99.90;;;;;;5056118;28;20468;-64
2022/04/25 02:27:33;;;;;;;15.27;6.28;;;9.80;99.90;;;;;;5048478;28;20049;-63
2022/04/25 02:29:58;;;;;;;14.07;5.18;;;9.70;99.90;;;;;;5036085;28;20033;-63
2022/04/25 02:32:25;;;;;;;15.55;5.53;;;9.60;99.90;;;;;;5052037;28;20052;-63
2022/04/25 02:34:50;;;;;;;15.73;5.85;;;9.50;99.90;;;;;;5036174;28;20033;-63
2022/04/25 02:37:17;;;;;;;15.88;5.53;;;9.40;99.90;;;;;;5038542;28;20017;-64
2022/04/25 02:39:42;;;;;;;16.65;6.65;;;9.40;99.90;;;;;;5053542;28;20397;-63
2022/04/25 02:42:08;;;;;;;15.60;7.10;;;9.40;99.90;;;;;;5035504;28;20037;-64
2022/04/25 02:44:34;;;;;;;18.55;6.45;;;9.30;99.90;;;;;;5034982;28;20416;-64
2022/04/25 02:46:59;;;;;;;25.33;8.25;;;9.30;99.90;;;;;;5035520;28;20075;-64
2022/04/25 02:49:25;;;;;;;14.38;6.55;;;9.30;99.90;;;;;;5035592;28;20117;-67
2022/04/25 02:51:50;;;;;;;15.82;6.18;;;9.30;99.90;;;;;;5035850;28;20025;-64
2022/04/25 02:54:16;;;;;;;15.35;6.60;;;9.30;99.90;;;;;;5034607;28;20022;-64
2022/04/25 02:56:42;;;;;;;23.75;7.28;;;9.30;99.90;;;;;;5035955;28;20108;-63
2022/04/25 02:59:07;;;;;;;20.30;7.47;;;9.30;99.90;;;;;;5054228;28;20029;-66
2022/04/25 03:01:33;;;;;;;15.70;7.75;;;9.40;99.90;;;;;;5055327;28;20032;-67
2022/04/25 03:03:59;;;;;;;21.30;8.40;;;9.40;99.90;;;;;;5039635;28;20022;-64
2022/04/25 03:06:25;;;;;;;22.90;7.90;;;9.40;99.90;;;;;;5050165;28;20109;-63
2022/04/25 03:08:51;;;;;;;20.55;7.95;;;9.40;99.90;;;;;;5033946;28;20108;-65
2022/04/25 03:11:16;;;;;;;19.35;7.50;;;9.40;99.90;;;;;;5035139;28;20397;-64
2022/04/25 03:13:43;;;;;;;19.85;8.20;;;9.50;99.90;;;;;;5053586;28;20471;-64
2022/04/25 03:16:09;;;;;;;17.15;7.10;;;9.50;99.90;;;;;;5055077;28;20321;-64
2022/04/25 03:18:35;;;;;;;17.88;7.38;;;9.50;99.90;;;;;;5042306;28;20028;-64
2022/04/25 03:21:01;;;;;;;16.63;6.40;;;9.50;99.90;;;;;;5054988;28;20061;-63
2022/04/25 03:23:28;;;;;;;17.23;6.95;;;9.60;99.90;;;;;;5050719;28;20095;-65
2022/04/25 03:25:54;;;;;;;20.30;7.65;;;9.50;99.90;;;;;;5034772;28;20071;-66
2022/04/25 03:28:20;;;;;;;19.75;8.38;;;9.50;99.90;;;;;;5034496;28;20452;-66
2022/04/25 03:30:46;;;;;;;21.65;6.80;;;9.40;99.90;;;;;;5035215;28;20021;-65
2022/04/25 03:33:12;;;;;;;21.30;8.90;;;9.40;99.90;;;;;;5033921;28;20079;-65
2022/04/25 03:35:41;;;;;;;22.45;7.47;;;9.30;99.90;;;;;;5043393;28;20082;-66
2022/04/25 03:38:08;;;;;;;19.85;7.70;;;9.30;99.90;;;;;;5040371;28;20030;-64
2022/04/25 03:40:35;;;;;;;18.83;8.18;;;9.30;99.90;;;;;;5035029;28;20053;-66
2022/04/25 03:43:00;;;;;;;17.02;6.90;;;9.20;99.90;;;;;;5034862;28;20104;-62
2022/04/25 03:45:26;;;;;;;20.67;7.65;;;9.20;99.90;;;;;;5034428;28;20052;-62
2022/04/25 03:47:53;;;;;;;23.55;8.05;;;9.10;99.90;;;;;;5034160;28;20017;-64
2022/04/25 03:50:19;;;;;;;20.13;8.38;;;9.10;99.90;;;;;;5034848;28;20425;-63
2022/04/25 03:52:45;;;;;;;18.73;7.10;;;9.10;99.90;;;;;;5034244;28;20025;-63
2022/04/25 03:57:58;;;;;;;16.77;6.72;;;9.00;99.90;;;;;;5034423;28;20413;-64
2022/04/25 04:00:24;;;;;;;19.98;6.93;;;9.00;99.90;;;;;;5032853;28;20454;-63
2022/04/25 04:02:50;;;;;;;23.67;8.07;;;8.90;99.90;;;;;;5046191;28;20033;-63
2022/04/25 04:05:15;;;;;;;19.45;7.63;;;8.90;99.90;;;;;;5054096;28;20025;-66
2022/04/25 04:07:41;;;;;;;21.13;7.88;;;8.90;99.90;;;;;;5040908;28;20043;-64
2022/04/25 04:10:08;;;;;;;17.38;7.13;;;8.90;99.90;;;;;;5034058;28;20029;-65
2022/04/25 04:12:34;;;;;;;17.42;7.10;;;8.80;99.90;;;;;;5034391;28;20040;-66
2022/04/25 04:15:05;;;;;;;19.02;7.15;;;8.80;99.90;;;;;;5034379;28;20025;-67
2022/04/25 04:17:34;;;;;;;25.15;8.13;;;8.80;99.90;;;;;;5034437;28;20045;-67
2022/04/25 04:20:02;;;;;;;18.23;7.85;;;8.70;99.90;;;;;;5032758;28;20120;-67
2022/04/25 04:22:30;;;;;;;21.98;8.05;;;8.70;99.90;;;;;;5048940;28;20462;-66
2022/04/25 04:25:04;;;;;;;23.20;7.43;;;8.70;99.90;;;;;;5033995;28;20025;-65
2022/04/25 04:27:32;;;;;;;19.10;7.97;;;8.80;99.90;;;;;;5033748;28;20072;-63
2022/04/25 04:30:02;;;;;;;17.33;7.60;;;8.80;99.90;;;;;;5043686;28;20021;-64
2022/04/25 04:32:29;;;;;;;16.33;7.20;;;8.80;99.90;;;;;;5042665;28;20029;-67
2022/04/25 04:34:56;;;;;;;19.38;7.75;;;8.90;99.90;;;;;;5034024;28;20022;-65
2022/04/25 04:37:23;;;;;;;16.67;6.88;;;8.90;99.90;;;;;;5032575;28;20033;-67
2022/04/25 04:39:49;;;;;;;20.42;7.65;;;9.00;99.90;;;;;;5033610;28;20147;-65
2022/04/25 04:42:14;;;;;;;19.60;7.95;;;9.00;99.90;;;;;;5037759;28;20119;-65
2022/04/25 04:44:42;;;;;;;20.60;8.00;;;9.00;99.90;;;;;;5049427;28;20580;-67
2022/04/25 04:47:08;;;;;;;18.95;7.28;;;9.10;99.90;;;;;;5038000;28;20078;-67
2022/04/25 04:49:34;;;;;;;15.10;6.20;;;9.10;99.90;;;;;;5053227;28;20523;-64
2022/04/25 04:52:00;;;;;;;17.42;7.20;;;9.20;99.90;;;;;;5051527;28;20080;-64
2022/04/25 04:54:25;;;;;;;18.80;7.38;;;9.20;99.90;;;;;;5044157;28;20040;-65
2022/04/25 04:56:51;;;;;;;18.40;7.75;;;9.30;99.90;;;;;;5032643;28;20025;-63
2022/04/25 04:59:16;;;;;;;15.98;6.63;;;9.30;99.90;;;;;;5033396;28;20033;-64
2022/04/25 05:01:43;;;;;;;16.90;6.35;;;9.30;99.90;;;;;;5033185;28;20035;-66
2022/04/25 05:04:10;;;;;;;18.67;7.43;;;9.30;99.90;;;;;;5033683;28;20025;-62
2022/04/25 05:06:35;;;;;;;18.83;7.72;;;9.30;99.90;;;;;;5033353;28;20105;-64
2022/04/25 05:09:01;;;;;;;16.45;7.43;;;9.40;99.90;;;;;;5033393;28;20048;-64
2022/04/25 05:11:29;;;;;;;17.77;7.00;;;9.40;99.90;;;;;;5033651;28;20021;-67
2022/04/25 05:13:55;;;;;;;16.90;7.43;;;9.40;99.90;;;;;;5040571;28;20105;-64
2022/04/25 05:16:20;;;;;;;18.40;8.63;;;9.40;99.90;;;;;;5032791;28;20069;-62
2022/04/25 05:18:46;;;;;;;19.65;7.97;;;9.40;99.90;;;;;;5033088;28;20017;-66
2022/04/25 05:21:13;;;;;;;19.50;7.70;;;9.40;99.90;;;;;;5033144;28;20017;-62
2022/04/25 05:23:40;;;;;;;23.13;8.70;;;9.40;99.90;;;;;;5032971;28;20120;-67
2022/04/25 05:26:07;;;;;;;21.42;9.85;;;9.40;99.90;;;;;;5032802;28;20025;-63
2022/04/25 05:28:33;;;;;;;18.52;8.55;;;9.40;99.90;;;;;;5033133;28;20047;-67
2022/04/25 05:30:58;;;;;;;20.20;9.50;;;9.40;99.90;;;;;;5033091;28;20026;-67
2022/04/25 05:33:24;;;;;;;20.77;8.85;;;9.40;99.90;;;;;;5033301;28;20026;-63
2022/04/25 05:35:49;;;;;;;26.77;12.20;;;9.40;99.90;;;;;;5033011;28;20026;-67
2022/04/25 05:38:15;;;;;;;21.10;9.82;;;9.40;99.90;;;;;;5033240;28;20025;-66
2022/04/25 05:40:42;;;;;;;21.90;9.23;;;9.50;99.90;;;;;;5049606;28;20027;-65
2022/04/25 05:43:08;;;;;;;21.38;9.27;;;9.50;99.90;;;;;;5046688;28;20495;-67
2022/04/25 05:45:34;;;;;;;21.23;8.15;;;9.50;99.90;;;;;;5051049;28;20460;-64
2022/04/25 05:48:00;;;;;;;23.83;9.30;;;9.50;99.90;;;;;;5035647;28;20025;-66
2022/04/25 05:53:13;;;;;;;22.90;11.13;;;9.50;99.90;;;;;;5037004;28;20412;-67
2022/04/25 05:55:39;;;;;;;22.00;9.63;;;9.50;99.90;;;;;;5036751;28;20021;-63
2022/04/25 05:58:08;;;;;;;19.05;8.65;;;9.50;99.90;;;;;;5037222;28;20087;-67
2022/04/25 06:00:35;;;;;;;21.73;8.73;;;9.40;99.90;;;;;;5036954;28;20017;-64
2022/04/25 06:03:02;;;;;;;21.13;10.07;;;9.40;99.90;;;;;;5036562;28;20037;-65
2022/04/25 06:05:28;;;;;;;23.00;10.63;;;9.40;99.90;;;;;;5036546;28;20033;-64
2022/04/25 06:07:54;;;;;;;19.27;9.45;;;9.40;99.90;;;;;;5036896;28;20029;-62
2022/04/25 06:10:25;;;;;;;23.52;10.60;;;9.30;99.90;;;;;;5035569;28;20021;-65
2022/04/25 06:12:52;;;;;;;24.92;10.45;;;9.40;99.90;;;;;;5052702;28;20029;-65
2022/04/25 06:15:21;;;;;;;23.40;10.20;;;9.30;99.90;;;;;;5052629;28;20063;-64
2022/04/25 06:17:47;;;;;;;17.77;9.00;;;9.30;99.90;;;;;;5054065;28;20024;-66
2022/04/25 06:20:13;;;;;;;21.08;9.70;;;9.30;99.90;;;;;;5054423;28;20174;-64
2022/04/25 06:22:39;;;;;;;19.67;8.82;;;9.30;99.90;;;;;;5055551;28;20131;-64
2022/04/25 06:25:06;;;;;;;22.10;9.82;;;9.20;99.90;;;;;;5055719;28;20021;-62
2022/04/25 06:27:32;;;;;;;23.98;10.25;;;9.20;99.90;;;;;;5055061;28;20045;-65
2022/04/25 06:29:57;;;;;;;17.25;7.47;;;9.20;99.90;;;;;;5055870;28;20074;-65
2022/04/25 06:32:24;;;;;;;21.08;9.38;;;9.20;99.90;;;;;;5055766;28;20107;-64
2022/04/25 06:34:49;;;;;;;19.23;7.82;;;9.20;99.90;;;;;;5053292;28;20025;-63
2022/04/25 06:37:15;;;;;;;19.10;8.77;;;9.20;99.90;;;;;;5049540;28;20028;-64
2022/04/25 06:39:41;;;;;;;23.90;11.43;;;9.30;99.90;;;;;;5055851;28;20427;-63
2022/04/25 06:42:10;;;;;;;24.85;9.20;;;9.40;99.90;;;;;;5055020;28;20029;-63
2022/04/25 06:44:39;;;;;;;17.23;7.75;;;9.50;99.90;;;;;;5055697;28;20052;-64
2022/04/25 06:47:05;;;;;;;19.13;8.50;;;9.50;99.90;;;;;;5044022;28;20412;-67
2022/04/25 06:49:31;;;;;;;22.45;10.35;;;9.60;99.90;;;;;;5038016;28;20025;-65
2022/04/25 06:52:00;;;;;;;23.85;10.90;;;9.60;99.90;;;;;;5052213;28;20377;-66
2022/04/25 06:54:27;;;;;;;18.23;8.98;;;9.70;99.90;;;;;;5042530;28;20020;-64
2022/04/25 06:56:54;;;;;;;22.45;9.10;;;9.70;99.90;;;;;;5047154;28;20024;-63
2022/04/25 06:59:21;;;;;;;19.95;9.30;;;9.80;99.90;;;;;;5054786;28;20061;-66
2022/04/25 07:01:48;;;;;;;20.77;9.20;;;9.90;99.90;;;;;;5045085;28;20041;-65
2022/04/25 07:04:16;;;;;;;18.67;8.65;;;10.00;99.90;;;;;;5052124;28;20354;-67
2022/04/25 07:06:44;;;;;;;18.42;9.05;;;10.10;99.90;;;;;;5049079;28;20020;-66
2022/04/25 07:09:12;;;;;;;19.45;7.10;;;10.10;99.90;;;;;;5054371;28;20021;-67
2022/04/25 07:11:43;;;;;;;20.70;9.35;;;10.20;99.90;;;;;;5054698;28;20063;-66
2022/04/25 07:14:19;;;;;;;19.00;8.10;;;10.30;99.90;;;;;;5044057;28;20048;-65
2022/04/25 07:16:52;;;;;;;16.10;7.07;;;10.40;99.90;;;;;;5044099;28;20080;-66
2022/04/25 07:19:19;;;;;;;18.52;7.25;;;10.50;99.90;;;;;;5055091;28;20551;-64
2022/04/25 07:29:58;;;;;;;17.27;7.35;;;10.50;99.90;;;;;;5043501;28;20071;-66
2022/04/25 07:32:24;;;;;;;18.83;7.57;;;10.60;99.90;;;;;;5053590;28;21179;-63
2022/04/25 07:34:50;;;;;;;12.32;6.65;;;10.60;99.90;;;;;;5057472;28;20052;-65
2022/04/25 07:37:18;;;;;;;16.33;7.32;;;10.60;99.90;;;;;;5053949;28;20048;-65
2022/04/25 07:39:45;;;;;;;17.23;7.90;;;10.70;99.90;;;;;;5044744;28;20032;-62
2022/04/25 07:42:12;;;;;;;16.33;7.53;;;10.80;99.90;;;;;;5053906;28;20035;-66
2022/04/25 07:44:38;;;;;;;15.52;6.93;;;10.90;99.90;;;;;;5053956;28;20029;-63
2022/04/25 07:47:05;;;;;;;15.75;7.45;;;11.00;99.90;;;;;;5050711;28;20075;-67
2022/04/25 07:49:30;;;;;;;18.83;7.63;;;11.00;99.90;;;;;;5054784;28;20017;-64
2022/04/25 07:51:56;;;;;;;17.35;7.85;;;11.10;99.90;;;;;;5049156;28;20491;-63
2022/04/25 07:54:22;;;;;;;16.33;7.57;;;11.20;99.90;;;;;;5051456;28;20029;-65
2022/04/25 07:56:48;;;;;;;15.85;7.10;;;11.30;99.90;;;;;;5050659;28;20102;-63
2022/04/25 07:59:15;;;;;;;18.67;7.70;;;11.30;99.90;;;;;;5050571;28;20053;-66
2022/04/25 08:01:41;;;;;;;17.92;6.90;;;11.30;99.90;;;;;;5047819;28;20040;-64
2022/04/25 08:04:07;;;;;;;16.48;7.07;;;11.20;99.90;;;;;;5031819;28;20026;-68
2022/04/25 08:06:33;;;;;;;16.92;8.10;;;11.20;99.90;;;;;;5052038;28;20017;-65
2022/04/25 08:09:01;;;;;;;17.65;7.03;;;11.20;99.90;;;;;;5051381;28;20449;-63
2022/04/25 08:11:27;;;;;;;16.92;7.40;;;11.20;99.90;;;;;;5054206;28;20045;-65
2022/04/25 08:19:21;;;;;;;20.73;7.05;;;11.50;99.90;;;;;;5042388;28;20036;-64
2022/04/25 08:21:47;;;;;;;14.73;6.70;;;11.50;99.90;;;;;;5042692;28;20376;-63
2022/04/25 08:24:13;;;;;;;16.08;7.30;;;11.60;99.90;;;;;;5051953;28;20033;-67
2022/04/25 08:26:39;;;;;;;15.73;7.45;;;11.70;99.90;;;;;;5053747;28;20025;-64
2022/04/25 08:29:05;;;;;;;12.27;6.43;;;11.80;99.90;;;;;;5051329;28;20036;-65
2022/04/25 08:31:32;;;;;;;13.77;6.47;;;12.00;99.90;;;;;;5052432;28;20032;-66
2022/04/25 08:33:57;;;;;;;14.43;6.72;;;12.30;99.90;;;;;;5053434;28;20464;-64
2022/04/25 08:36:23;;;;;;;16.60;6.80;;;12.50;99.90;;;;;;5050129;28;20017;-65
2022/04/25 08:38:49;;;;;;;14.35;6.57;;;12.70;99.90;;;;;;5036227;28;20368;-64
2022/04/25 08:41:17;;;;;;;14.05;6.18;;;13.00;99.90;;;;;;5046558;28;20057;-64
2022/04/25 08:43:43;;;;;;;14.30;6.18;;;13.30;99.90;;;;;;5043877;28;20138;-65
2022/04/25 08:46:10;;;;;;;12.73;5.63;;;13.50;99.90;;;;;;5052745;28;20051;-62
2022/04/25 08:48:39;;;;;;;15.00;6.22;;;13.60;99.90;;;;;;5048658;28;20017;-63
2022/04/25 08:51:05;;;;;;;16.70;6.65;;;13.70;99.90;;;;;;5049959;28;20043;-63
2022/04/25 08:53:35;;;;;;;15.73;6.68;;;13.80;99.90;;;;;;5049272;28;20029;-67
2022/04/25 08:56:03;;;;;;;12.00;5.68;;;13.90;99.90;;;;;;5048587;28;20071;-65
2022/04/25 08:58:32;;;;;;;13.02;6.32;;;13.90;99.90;;;;;;5048511;28;20032;-66
2022/04/25 09:01:00;;;;;;;14.65;6.70;;;13.70;99.90;;;;;;5047641;28;20048;-66
2022/04/25 09:03:26;;;;;;;18.40;7.10;;;13.70;99.90;;;;;;5048957;28;20037;-64
2022/04/25 09:05:52;;;;;;;17.13;6.25;;;13.70;99.90;;;;;;5045996;28;20029;-66
2022/04/25 09:08:18;;;;;;;14.95;6.20;;;13.70;99.90;;;;;;5052449;28;20170;-64
2022/04/25 09:10:44;;;;;;;13.68;6.60;;;13.70;99.90;;;;;;5053328;28;20087;-65
2022/04/25 09:13:11;;;;;;;14.48;5.97;;;13.60;99.90;;;;;;5053567;28;20195;-65
2022/04/25 09:15:37;;;;;;;15.40;7.28;;;13.50;99.90;;;;;;5052361;28;20472;-64
2022/04/25 09:18:03;;;;;;;15.25;6.80;;;13.50;99.90;;;;;;5052684;28;20052;-63
2022/04/25 09:20:30;;;;;;;15.27;6.38;;;13.50;99.90;;;;;;5051313;28;20453;-63
2022/04/25 09:22:57;;;;;;;12.68;6.25;;;13.40;99.90;;;;;;5050780;28;20408;-63
2022/04/25 09:25:22;;;;;;;20.98;7.82;;;13.40;99.90;;;;;;5052204;28;20082;-63
2022/04/25 09:28:14;;;;;;;13.85;6.68;;;13.20;99.90;;;;;;5044171;28;20033;-64
2022/04/25 09:30:55;;;;;;;16.33;7.47;;;13.00;99.90;;;;;;5037514;28;20040;-63
2022/04/25 09:33:22;;;;;;;15.02;7.30;;;12.80;99.90;;;;;;5039234;28;20028;-63
2022/04/25 09:35:53;;;;;;;13.75;6.05;;;12.80;99.90;;;;;;5041643;28;20030;-64
2022/04/25 09:38:29;;;;;;;17.60;7.38;;;12.70;99.90;;;;;;5038085;28;20104;-63
2022/04/25 09:40:55;;;;;;;13.82;7.07;;;12.70;99.90;;;;;;5047324;28;20457;-64
2022/04/25 09:43:30;;;;;;;15.57;6.60;;;12.70;99.90;;;;;;5043816;28;20256;-63
2022/04/25 09:46:03;;;;;;;14.75;7.18;;;12.70;99.90;;;;;;5036121;28;20037;-66
2022/04/25 09:48:30;;;;;;;15.85;6.70;;;12.80;99.90;;;;;;5019226;28;20103;-63
2022/04/25 09:51:06;;;;;;;16.05;7.03;;;13.00;99.90;;;;;;5021517;28;20956;-67
2022/04/25 09:53:52;;;;;;;12.50;6.05;;;13.20;99.90;;;;;;5042758;28;20037;-66
2022/04/25 09:56:20;;;;;;;17.08;6.78;;;13.40;99.90;;;;;;5046995;28;20028;-66
2022/04/25 09:59:03;;;;;;;16.90;7.28;;;13.50;99.90;;;;;;5056476;28;20091;-64
2022/04/25 10:01:30;;;;;;;14.27;6.50;;;13.50;99.90;;;;;;5049943;28;20021;-67
2022/04/25 10:03:56;;;;;;;16.85;7.63;;;13.50;99.90;;;;;;5043847;28;20100;-66
2022/04/25 10:06:22;;;;;;;13.38;6.13;;;13.40;99.90;;;;;;5041972;28;20120;-65
2022/04/25 10:08:52;;;;;;;16.77;6.80;;;13.30;99.90;;;;;;5047768;28;20508;-64
2022/04/25 10:11:26;;;;;;;17.23;9.13;;;13.20;99.90;;;;;;5039184;28;20036;-65
2022/04/25 10:13:52;;;;;;;17.23;7.38;;;13.10;99.90;;;;;;5038389;28;20132;-63
2022/04/25 10:16:21;;;;;;;16.45;7.90;;;13.10;99.90;;;;;;5048259;28;20096;-64
2022/04/25 10:18:46;;;;;;;16.63;7.63;;;12.90;99.90;;;;;;5049735;28;20017;-62
2022/04/25 10:21:14;;;;;;;19.45;8.95;;;12.70;99.90;;;;;;5048634;28;20415;-63
2022/04/25 10:23:41;;;;;;;21.25;10.07;;;12.60;99.90;;;;;;5049357;28;20068;-64
2022/04/25 10:26:06;;;;;;;17.15;8.73;;;12.40;99.90;;;;;;5047246;28;20121;-63
2022/04/25 10:28:43;;;;;;;23.60;9.50;;;12.30;99.90;;;;;;5049457;28;20132;-64
2022/04/25 10:31:20;;;;;;;18.88;9.57;;;12.20;99.90;;;;;;5050602;28;20032;-64
2022/04/25 10:33:50;;;;;;;15.45;7.95;;;12.10;99.90;;;;;;5052940;28;20052;-63
2022/04/25 10:36:37;;;;;;;15.75;7.32;;;11.90;99.90;;;;;;5048746;28;20021;-64
2022/04/25 10:39:13;;;;;;;20.27;8.90;;;11.80;99.90;;;;;;5045908;28;20025;-64
2022/04/25 10:44:48;;;;;;;20.80;9.20;;;11.70;99.90;;;;;;5039763;28;20104;-64
2022/04/25 10:47:19;;;;;;;22.67;8.77;;;11.60;99.90;;;;;;5049254;28;20124;-65
2022/04/25 10:49:55;;;;;;;16.90;7.65;;;11.60;99.90;;;;;;5052103;28;20086;-66
2022/04/25 10:52:52;;;;;;;17.88;8.18;;;11.50;99.90;;;;;;5046296;28;20033;-63
2022/04/25 10:55:34;;;;;;;21.13;8.45;;;11.50;99.90;;;;;;5043787;28;20025;-66
2022/04/25 10:58:03;;;;;;;15.70;8.35;;;11.50;99.90;;;;;;5040007;28;20104;-64
2022/04/25 11:00:37;;;;;;;17.30;7.97;;;11.40;99.90;;;;;;5045597;28;20029;-66
2022/04/25 11:03:07;;;;;;;19.40;9.00;;;11.40;99.90;;;;;;5039373;28;20427;-64
2022/04/25 11:05:34;;;;;;;22.40;9.00;;;11.40;99.90;;;;;;5038136;28;20017;-64
2022/04/25 11:08:23;;;;;;;18.88;9.25;;;11.40;99.90;;;;;;5038491;28;20091;-69
2022/04/25 11:10:59;;;;;;;14.63;7.20;;;11.40;99.90;;;;;;5045313;28;20302;-65
2022/04/25 11:13:28;;;;;;;15.10;7.93;;;11.40;99.90;;;;;;5060989;28;20058;-64
2022/04/25 11:15:57;;;;;;;16.73;8.43;;;11.40;99.90;;;;;;5043088;28;20021;-64
2022/04/25 11:18:33;;;;;;;18.55;8.23;;;11.60;99.90;;;;;;5037318;28;20025;-64
2022/04/25 11:21:13;;;;;;;16.48;7.60;;;11.70;99.90;;;;;;5035487;28;20025;-64
2022/04/25 11:23:44;;;;;;;17.13;7.78;;;11.90;99.90;;;;;;5038719;28;20377;-64
2022/04/25 11:26:25;;;;;;;17.50;9.40;;;12.00;99.90;;;;;;5053028;28;20037;-63
2022/04/25 11:29:01;;;;;;;19.45;8.95;;;12.00;99.90;;;;;;5039698;28;20469;-63
2022/04/25 11:31:28;;;;;;;18.88;9.13;;;12.10;99.90;;;;;;5041968;28;20111;-63
2022/04/25 11:33:56;;;;;;;15.88;7.47;;;12.10;99.90;;;;;;5052898;28;20457;-66
2022/04/25 11:36:23;;;;;;;16.90;8.30;;;12.10;99.90;;;;;;5050110;28;20480;-63
2022/04/25 11:41:35;;;;;;;20.27;9.00;;;12.00;99.90;;;;;;5054620;28;20047;-64
2022/04/25 11:44:02;;;;;;;18.52;9.50;;;11.80;99.90;;;;;;5058799;28;20024;-64
2022/04/25 11:46:32;;;;;;;23.08;10.98;;;11.70;99.90;;;;;;5039323;28;20433;-64
2022/04/25 11:49:01;;;;;;;16.98;8.85;;;11.50;99.90;;;;;;5049306;28;20036;-63
2022/04/25 11:51:29;;;;;;;17.10;8.68;;;11.30;99.90;;;;;;5049678;28;20033;-64
2022/04/25 11:53:59;;;;;;;19.45;8.93;;;11.10;99.90;;;;;;5034555;28;20028;-65
2022/04/25 11:56:29;;;;;;;17.27;8.27;;;11.00;99.90;;;;;;5034720;28;20025;-64
2022/04/25 11:58:56;;;;;;;17.02;8.10;;;10.80;99.90;;;;;;5033493;28;20117;-66
2022/04/25 12:01:32;;;;;;;14.48;7.30;;;10.80;99.90;;;;;;5053473;28;20031;-64
2022/04/25 12:04:22;;;;;;;20.05;9.23;;;10.80;99.90;;;;;;5049786;28;20380;-67
2022/04/25 12:07:05;;;;;;;17.75;8.55;;;10.90;99.90;;;;;;5054408;28;20032;-64
2022/04/25 12:15:34;;;;;;;16.02;7.28;;;11.10;99.90;;;;;;5033797;28;20032;-62
2022/04/25 12:18:20;;;;;;;18.80;7.70;;;11.10;99.90;;;;;;5037097;28;20079;-68
2022/04/25 12:20:49;;;;;;;17.48;8.45;;;11.20;99.90;;;;;;5052373;28;20029;-65
2022/04/25 12:23:27;;;;;;;16.17;8.32;;;11.20;99.90;;;;;;5050754;28;20045;-67
2022/04/25 12:25:53;;;;;;;16.20;8.48;;;11.20;99.90;;;;;;5053425;28;20075;-64
2022/04/25 12:28:24;;;;;;;15.85;8.48;;;11.30;99.90;;;;;;5054513;28;20041;-64
2022/04/25 12:31:04;;;;;;;17.33;8.60;;;11.40;99.90;;;;;;5053495;28;20098;-65
2022/04/25 12:33:35;;;;;;;15.35;7.97;;;11.40;99.90;;;;;;5047741;28;20087;-68
2022/04/25 12:36:16;;;;;;;17.13;7.50;;;11.40;99.90;;;;;;5043342;28;20025;-64
2022/04/25 12:39:24;;;;;;;20.08;8.90;;;11.50;99.90;;;;;;5052040;28;20013;-64
2022/04/25 12:41:53;;;;;;;19.65;9.07;;;11.50;99.90;;;;;;5051972;28;20037;-65
2022/04/25 12:44:20;;;;;;;19.88;8.63;;;11.60;99.90;;;;;;5040852;28;20369;-63
2022/04/25 12:46:48;;;;;;;18.33;9.32;;;11.60;99.90;;;;;;5059607;28;20032;-66
2022/04/25 12:49:20;;;;;;;17.13;8.80;;;11.70;99.90;;;;;;5041390;28;20095;-62
2022/04/25 12:51:55;;;;;;;18.00;7.97;;;11.80;99.90;;;;;;5037426;28;20025;-65
2022/04/25 12:54:30;;;;;;;18.40;7.22;;;11.90;99.90;;;;;;5051144;28;20013;-64
2022/04/25 12:57:09;;;;;;;14.45;7.18;;;11.90;99.90;;;;;;5051094;28;20025;-67
2022/04/25 12:59:36;;;;;;;13.07;6.18;;;11.90;99.90;;;;;;5050470;28;20033;-67
2022/04/25 13:02:17;;;;;;;13.90;7.07;;;11.90;99.90;;;;;;5048021;28;20062;-63
2022/04/25 13:04:57;;;;;;;15.68;7.47;;;11.90;99.90;;;;;;5043089;28;20396;-63
2022/04/25 13:07:37;;;;;;;16.77;7.50;;;11.90;99.90;;;;;;5039680;28;20013;-64
2022/04/25 13:10:07;;;;;;;17.02;7.35;;;12.00;99.90;;;;;;5042373;28;20038;-63
2022/04/25 13:12:54;;;;;;;17.95;6.75;;;12.00;99.90;;;;;;5041746;28;20040;-63
2022/04/25 13:15:29;;;;;;;16.00;7.20;;;12.10;99.90;;;;;;5045160;28;20049;-63
2022/04/25 13:17:54;;;;;;;17.30;7.60;;;12.10;99.90;;;;;;5033561;28;20053;-63
2022/04/25 13:20:21;;;;;;;15.50;8.27;;;12.10;99.90;;;;;;5032302;28;20033;-63
2022/04/25 13:22:48;;;;;;;13.48;7.72;;;12.10;99.90;;;;;;5031745;28;20033;-62